createdAt,value
2017-11-03T00:00:33.688Z,71.90
2017-11-03T00:05:35.510Z,71.90
2017-11-03T00:10:37.317Z,72.30
2017-11-03T00:15:38.382Z,72.30
2017-11-03T00:20:39.433Z,72.80
2017-11-03T00:25:40.518Z,73.20
2017-11-03T00:30:41.593Z,73.30
2017-11-03T00:35:42.653Z,73.40
2017-11-03T00:40:43.717Z,73.60
2017-11-03T00:45:44.784Z,73.80
2017-11-03T00:50:45.850Z,73.80
2017-11-03T00:55:46.908Z,74.60
2017-11-03T01:00:47.971Z,73.70
2017-11-03T01:05:49.762Z,72.80
2017-11-03T01:10:50.805Z,72.70
2017-11-03T01:15:52.582Z,73.10
2017-11-03T01:20:54.379Z,73.10
2017-11-03T01:25:55.439Z,73.10
2017-11-03T01:30:56.485Z,73.20
2017-11-03T01:35:58.283Z,73.70
2017-11-03T01:40:59.358Z,73.70
2017-11-03T01:46:00.449Z,73.90
2017-11-03T01:51:01.510Z,74.00
2017-11-03T01:56:02.585Z,74.00
2017-11-03T02:01:04.375Z,74.40
2017-11-03T02:06:05.443Z,74.40
2017-11-03T02:11:06.518Z,72.80
2017-11-03T02:16:07.609Z,73.20
2017-11-03T02:21:08.682Z,72.20
2017-11-03T02:26:09.764Z,72.40
2017-11-03T02:31:10.814Z,73.00
2017-11-03T02:36:12.621Z,73.40
2017-11-03T02:41:13.701Z,73.40
2017-11-03T02:46:14.762Z,73.80
2017-11-03T02:51:15.833Z,74.20
2017-11-03T02:56:16.893Z,74.10
2017-11-03T03:01:17.945Z,74.10
2017-11-03T03:06:18.996Z,73.90
2017-11-03T03:11:20.049Z,73.30
2017-11-03T03:16:21.104Z,73.70
2017-11-03T03:21:22.188Z,73.80
2017-11-03T03:26:23.284Z,73.50
2017-11-03T03:31:24.341Z,74.20
2017-11-03T03:36:25.437Z,75.60
2017-11-03T03:41:26.496Z,76.70
2017-11-03T03:46:27.562Z,75.90
2017-11-03T03:51:28.662Z,75.80
2017-11-03T03:56:29.717Z,76.50
2017-11-03T04:01:31.565Z,75.40
2017-11-03T04:06:32.679Z,75.40
2017-11-03T04:11:33.734Z,75.30
2017-11-03T04:16:34.769Z,74.20
2017-11-03T04:21:40.204Z,75.00
2017-11-03T04:26:41.298Z,75.00
2017-11-03T04:31:42.381Z,75.10
2017-11-03T04:36:43.445Z,75.20
2017-11-03T04:41:44.513Z,75.80
2017-11-03T04:46:45.586Z,76.30
2017-11-03T04:51:47.402Z,76.30
2017-11-03T04:56:49.197Z,76.20
2017-11-03T05:01:50.261Z,76.20
2017-11-03T05:06:51.337Z,77.10
2017-11-03T05:11:52.401Z,78.10
2017-11-03T05:16:53.456Z,77.80
2017-11-03T05:21:54.529Z,78.00
2017-11-03T05:26:56.098Z,78.40
2017-11-03T05:31:57.930Z,78.50
2017-11-03T05:36:59.012Z,78.70
2017-11-03T05:42:00.089Z,79.40
2017-11-03T05:47:01.152Z,79.30
2017-11-03T05:52:02.213Z,80.30
2017-11-03T05:57:03.277Z,80.70
2017-11-03T06:02:04.342Z,80.60
2017-11-03T06:07:07.393Z,80.40
2017-11-03T06:12:08.474Z,79.50
2017-11-03T06:17:09.566Z,79.70
2017-11-03T06:22:10.641Z,79.60
2017-11-03T06:27:12.449Z,79.90
2017-11-03T06:32:13.509Z,79.90
2017-11-03T06:37:14.569Z,79.80
2017-11-03T06:42:15.657Z,79.70
2017-11-03T06:47:16.704Z,78.50
2017-11-03T06:52:17.757Z,77.50
2017-11-03T06:57:18.809Z,76.80
2017-11-03T07:02:19.880Z,75.50
2017-11-03T07:07:20.947Z,74.20
2017-11-03T07:12:22.010Z,73.80
2017-11-03T07:17:23.077Z,72.50
2017-11-03T07:22:24.126Z,71.00
2017-11-03T07:27:25.184Z,69.70
2017-11-03T07:32:26.220Z,69.00
2017-11-03T07:37:27.289Z,68.20
2017-11-03T07:42:28.358Z,66.80
2017-11-03T07:47:29.426Z,66.70
2017-11-03T07:52:30.489Z,64.10
2017-11-03T07:57:32.317Z,63.80
2017-11-03T08:02:33.368Z,63.80
2017-11-03T08:07:35.140Z,64.50
2017-11-03T08:12:36.205Z,64.30
2017-11-03T08:17:37.268Z,64.50
2017-11-03T08:22:38.345Z,63.10
2017-11-03T08:27:43.028Z,60.50
2017-11-03T08:32:44.828Z,58.20
2017-11-03T08:37:45.885Z,58.10
2017-11-03T08:42:47.797Z,58.90
2017-11-03T08:47:48.840Z,57.10
2017-11-03T08:52:49.926Z,55.20
2017-11-03T08:57:51.016Z,55.10
2017-11-03T09:02:52.796Z,50.30
2017-11-03T09:07:54.589Z,47.80
2017-11-03T09:12:56.674Z,47.20
2017-11-03T09:17:57.752Z,47.00
2017-11-03T09:22:58.830Z,47.30
2017-11-03T09:27:59.901Z,49.90
2017-11-03T09:33:00.977Z,52.50
2017-11-03T09:38:02.785Z,52.60
2017-11-03T09:43:03.882Z,52.60
2017-11-03T09:48:04.960Z,51.40
2017-11-03T09:53:06.015Z,52.00
2017-11-03T09:58:07.885Z,50.70
2017-11-03T10:03:08.952Z,50.70
2017-11-03T10:08:10.014Z,51.20
2017-11-03T10:13:11.841Z,50.80
2017-11-03T10:18:12.921Z,50.70
2017-11-03T10:23:14.065Z,50.20
2017-11-03T10:28:15.149Z,49.10
2017-11-03T10:33:16.234Z,48.00
2017-11-03T10:38:18.040Z,43.80
2017-11-03T10:43:19.122Z,44.40
2017-11-03T10:48:20.204Z,42.90
2017-11-03T10:53:21.257Z,40.80
2017-11-03T10:58:22.347Z,42.20
2017-11-03T11:03:24.135Z,44.40
2017-11-03T11:08:25.177Z,44.40
2017-11-03T11:13:26.998Z,41.70
2017-11-03T11:18:28.073Z,41.70
2017-11-03T11:23:29.138Z,41.80
2017-11-03T11:28:30.204Z,40.80
2017-11-03T11:33:31.276Z,38.50
2017-11-03T11:38:33.089Z,39.60
2017-11-03T11:43:34.253Z,38.90
2017-11-03T11:48:35.345Z,38.90
2017-11-03T11:53:36.421Z,37.60
2017-11-03T11:58:37.526Z,37.70
2017-11-03T12:03:38.640Z,37.80
2017-11-03T12:08:43.074Z,36.30
2017-11-03T12:13:44.167Z,38.10
2017-11-03T12:18:45.656Z,38.40
2017-11-03T12:23:46.769Z,36.60
2017-11-03T12:28:47.849Z,37.90
2017-11-03T12:33:49.653Z,39.70
2017-11-03T12:38:50.702Z,39.70
2017-11-03T12:43:51.794Z,38.80
2017-11-03T12:48:52.862Z,40.50
2017-11-03T12:53:53.945Z,41.40
2017-11-03T12:58:55.745Z,40.30
2017-11-03T13:03:56.825Z,40.30
2017-11-03T13:08:57.892Z,41.20
2017-11-03T13:13:58.957Z,42.30
2017-11-03T13:19:00.023Z,43.70
2017-11-03T13:24:01.081Z,43.60
2017-11-03T13:29:02.197Z,43.40
2017-11-03T13:34:03.262Z,43.30
2017-11-03T13:39:04.341Z,43.30
2017-11-03T13:44:05.415Z,43.50
2017-11-03T13:49:06.472Z,44.90
2017-11-03T13:54:07.566Z,45.20
2017-11-03T13:59:09.388Z,46.80
2017-11-03T14:04:10.452Z,46.70
2017-11-03T14:09:11.523Z,47.70
2017-11-03T14:14:12.586Z,48.30
2017-11-03T14:19:16.997Z,48.80
2017-11-03T14:24:18.070Z,50.10
2017-11-03T14:29:19.151Z,49.70
2017-11-03T14:34:20.239Z,50.50
2017-11-03T14:39:22.057Z,51.30
2017-11-03T14:44:23.395Z,51.40
2017-11-03T14:49:24.453Z,52.40
2017-11-03T14:54:25.513Z,52.80
2017-11-03T14:59:27.576Z,53.70
2017-11-03T15:04:29.378Z,56.40
2017-11-03T15:09:30.452Z,56.50
2017-11-03T15:14:31.522Z,57.70
2017-11-03T15:19:32.600Z,58.40
2017-11-03T15:24:33.683Z,59.90
2017-11-03T15:29:34.777Z,62.60
2017-11-03T15:34:35.882Z,64.20
2017-11-03T15:39:36.946Z,66.30
2017-11-03T15:44:38.750Z,70.80
2017-11-03T15:49:39.821Z,70.80
2017-11-03T15:54:41.882Z,72.50
2017-11-03T15:59:42.956Z,73.90
2017-11-03T16:04:44.021Z,76.00
2017-11-03T16:09:45.093Z,77.30
2017-11-03T16:14:46.208Z,79.00
2017-11-03T16:19:47.996Z,81.50
2017-11-03T16:24:49.076Z,81.50
2017-11-03T16:29:50.150Z,82.60
2017-11-03T16:34:51.205Z,82.70
2017-11-03T16:39:52.290Z,83.10
2017-11-03T16:44:53.375Z,84.20
2017-11-03T16:49:54.445Z,85.30
2017-11-03T16:54:55.558Z,85.60
2017-11-03T16:59:56.622Z,86.70
2017-11-03T17:04:57.668Z,87.60
2017-11-03T17:09:58.733Z,88.70
2017-11-03T17:14:59.806Z,89.70
2017-11-03T17:20:13.832Z,90.20
2017-11-03T17:25:14.886Z,90.30
2017-11-03T17:30:15.966Z,90.90
2017-11-03T17:35:31.969Z,90.90
2017-11-03T17:40:33.022Z,90.90
2017-11-03T17:45:34.098Z,91.30
2017-11-03T17:50:35.170Z,91.50
2017-11-03T17:55:41.570Z,91.60
2017-11-03T18:00:43.384Z,91.90
2017-11-03T18:05:46.528Z,91.80
2017-11-03T18:10:47.610Z,92.00
2017-11-03T18:15:49.452Z,92.20
2017-11-03T18:20:58.910Z,92.20
2017-11-03T18:25:59.974Z,92.20
2017-11-03T18:31:01.028Z,92.20
2017-11-03T18:36:02.098Z,92.40
2017-11-03T18:41:03.212Z,92.30
2017-11-03T18:46:04.241Z,92.40
2017-11-03T18:51:05.345Z,92.40
2017-11-03T18:56:06.444Z,92.50
2017-11-03T19:01:08.217Z,92.50
2017-11-03T19:06:10.013Z,92.40
2017-11-03T19:11:11.064Z,92.40
2017-11-03T19:16:12.885Z,92.50
2017-11-03T19:21:13.977Z,92.40
2017-11-03T19:26:15.119Z,92.50
2017-11-03T19:31:16.212Z,92.50
2017-11-03T19:36:18.045Z,92.50
2017-11-03T19:41:19.132Z,92.50
2017-11-03T19:46:20.193Z,92.50
2017-11-03T19:51:21.982Z,92.40
2017-11-03T19:56:27.422Z,92.40
2017-11-03T20:01:29.268Z,92.40
2017-11-03T20:06:30.372Z,92.40
2017-11-03T20:11:32.216Z,92.40
2017-11-03T20:16:33.271Z,92.40
2017-11-03T20:21:34.325Z,92.40
2017-11-03T20:26:37.129Z,92.30
2017-11-03T20:31:38.253Z,92.30
2017-11-03T20:36:39.359Z,92.30
2017-11-03T20:41:40.460Z,92.40
2017-11-03T20:46:41.550Z,92.40
2017-11-03T20:51:42.614Z,92.40
2017-11-03T20:56:43.740Z,92.30
2017-11-03T21:01:44.852Z,92.30
2017-11-03T21:06:45.894Z,92.30
2017-11-03T21:11:46.930Z,92.20
2017-11-03T21:16:48.011Z,92.20
2017-11-03T21:21:49.049Z,92.20
2017-11-03T21:26:50.109Z,92.20
2017-11-03T21:31:51.157Z,92.20
2017-11-03T21:36:52.205Z,92.30
2017-11-03T21:41:53.252Z,92.20
2017-11-03T21:46:54.360Z,92.20
2017-11-03T21:51:55.417Z,92.20
2017-11-03T21:56:56.516Z,92.10
2017-11-03T22:01:58.289Z,92.30
2017-11-03T22:07:00.081Z,92.20
2017-11-03T22:12:01.117Z,92.20
2017-11-03T22:17:02.949Z,92.30
2017-11-03T22:22:04.001Z,92.20
2017-11-03T22:27:05.053Z,92.10
2017-11-03T22:32:06.121Z,92.20
2017-11-03T22:37:07.174Z,92.20
2017-11-03T22:42:09.124Z,92.30
2017-11-03T22:47:10.218Z,92.30
2017-11-03T22:52:11.258Z,92.30
2017-11-03T22:57:12.367Z,92.20
2017-11-03T23:02:13.453Z,92.10
2017-11-03T23:07:15.226Z,92.30
2017-11-03T23:12:17.015Z,92.40
2017-11-03T23:17:18.049Z,92.30
2017-11-03T23:22:19.849Z,92.30
2017-11-03T23:27:20.917Z,92.30
2017-11-03T23:32:21.989Z,92.30
2017-11-03T23:37:23.044Z,92.40
2017-11-03T23:42:24.101Z,92.30
2017-11-03T23:47:25.169Z,92.40
2017-11-03T23:52:26.229Z,92.40
2017-11-03T23:57:27.281Z,92.50
